sensor_id;sensor_type;location;lat;lon;timestamp;P1;durP1;ratioP1;P2;durP2;ratioP2
17947;SDS011;9099;47.958;11.366;2023-12-20T00:00:55;1.20;;;1.10;;
17947;SDS011;9099;47.958;11.366;2023-12-20T00:03:22;1.10;;;1.10;;
17947;SDS011;9099;47.958;11.366;2023-12-20T00:05:49;1.27;;;1.20;;
17947;SDS011;9099;47.958;11.366;2023-12-20T00:08:16;1.13;;;1.10;;
17947;SDS011;9099;47.958;11.366;2023-12-20T00:10:43;3.50;;;1.40;;
17947;SDS011;9099;47.958;11.366;2023-12-20T00:13:10;1.88;;;1.33;;
17947;SDS011;9099;47.958;11.366;2023-12-20T00:15:39;1.60;;;1.20;;
17947;SDS011;9099;47.958;11.366;2023-12-20T00:18:06;1.30;;;1.20;;
17947;SDS011;9099;47.958;11.366;2023-12-20T00:20:33;1.25;;;1.15;;
17947;SDS011;9099;47.958;11.366;2023-12-20T00:23:00;1.30;;;1.20;;
17947;SDS011;9099;47.958;11.366;2023-12-20T00:25:28;1.90;;;1.30;;
17947;SDS011;9099;47.958;11.366;2023-12-20T00:27:54;1.45;;;1.35;;
17947;SDS011;9099;47.958;11.366;2023-12-20T00:30:21;1.38;;;1.27;;
17947;SDS011;9099;47.958;11.366;2023-12-20T00:32:49;1.30;;;1.20;;
17947;SDS011;9099;47.958;11.366;2023-12-20T00:35:16;1.23;;;1.17;;
17947;SDS011;9099;47.958;11.366;2023-12-20T00:37:43;1.42;;;1.30;;
17947;SDS011;9099;47.958;11.366;2023-12-20T00:40:10;2.38;;;1.30;;
17947;SDS011;9099;47.958;11.366;2023-12-20T00:42:37;1.52;;;1.42;;
17947;SDS011;9099;47.958;11.366;2023-12-20T00:45:04;1.45;;;1.35;;
17947;SDS011;9099;47.958;11.366;2023-12-20T00:47:32;1.40;;;1.30;;
17947;SDS011;9099;47.958;11.366;2023-12-20T00:50:00;1.33;;;1.23;;
17947;SDS011;9099;47.958;11.366;2023-12-20T00:52:27;1.20;;;1.10;;
17947;SDS011;9099;47.958;11.366;2023-12-20T00:54:54;1.50;;;1.40;;
17947;SDS011;9099;47.958;11.366;2023-12-20T00:57:21;1.58;;;1.30;;
17947;SDS011;9099;47.958;11.366;2023-12-20T00:59:48;1.30;;;1.20;;
17947;SDS011;9099;47.958;11.366;2023-12-20T01:02:15;1.40;;;1.30;;
17947;SDS011;9099;47.958;11.366;2023-12-20T01:04:42;1.48;;;1.38;;
17947;SDS011;9099;47.958;11.366;2023-12-20T01:07:10;1.70;;;1.60;;
17947;SDS011;9099;47.958;11.366;2023-12-20T01:09:37;1.75;;;1.65;;
17947;SDS011;9099;47.958;11.366;2023-12-20T01:12:04;1.52;;;1.42;;
17947;SDS011;9099;47.958;11.366;2023-12-20T01:14:31;1.52;;;1.30;;
17947;SDS011;9099;47.958;11.366;2023-12-20T01:16:58;1.70;;;1.60;;
17947;SDS011;9099;47.958;11.366;2023-12-20T01:19:25;1.52;;;1.27;;
17947;SDS011;9099;47.958;11.366;2023-12-20T01:21:53;1.45;;;1.35;;
17947;SDS011;9099;47.958;11.366;2023-12-20T01:24:21;1.40;;;1.30;;
17947;SDS011;9099;47.958;11.366;2023-12-20T01:26:48;1.38;;;1.27;;
17947;SDS011;9099;47.958;11.366;2023-12-20T01:29:15;1.15;;;1.13;;
17947;SDS011;9099;47.958;11.366;2023-12-20T01:31:42;3.13;;;1.67;;
17947;SDS011;9099;47.958;11.366;2023-12-20T01:34:09;1.65;;;1.55;;
17947;SDS011;9099;47.958;11.366;2023-12-20T01:36:35;1.50;;;1.33;;
17947;SDS011;9099;47.958;11.366;2023-12-20T01:39:02;1.40;;;1.30;;
17947;SDS011;9099;47.958;11.366;2023-12-20T01:41:30;1.42;;;1.33;;
17947;SDS011;9099;47.958;11.366;2023-12-20T01:43:57;1.55;;;1.35;;
17947;SDS011;9099;47.958;11.366;2023-12-20T01:46:24;1.58;;;1.48;;
17947;SDS011;9099;47.958;11.366;2023-12-20T01:48:51;1.77;;;1.65;;
17947;SDS011;9099;47.958;11.366;2023-12-20T01:51:19;1.30;;;1.20;;
17947;SDS011;9099;47.958;11.366;2023-12-20T01:53:46;1.40;;;1.27;;
17947;SDS011;9099;47.958;11.366;2023-12-20T01:56:14;1.38;;;1.27;;
17947;SDS011;9099;47.958;11.366;2023-12-20T01:58:43;1.60;;;1.38;;
17947;SDS011;9099;47.958;11.366;2023-12-20T02:01:11;1.20;;;1.10;;
17947;SDS011;9099;47.958;11.366;2023-12-20T02:03:38;2.92;;;2.67;;
17947;SDS011;9099;47.958;11.366;2023-12-20T02:06:06;1.17;;;1.17;;
17947;SDS011;9099;47.958;11.366;2023-12-20T02:08:34;1.75;;;1.65;;
17947;SDS011;9099;47.958;11.366;2023-12-20T02:11:01;1.30;;;1.30;;
17947;SDS011;9099;47.958;11.366;2023-12-20T02:13:28;1.30;;;1.20;;
17947;SDS011;9099;47.958;11.366;2023-12-20T02:15:56;1.30;;;1.02;;
17947;SDS011;9099;47.958;11.366;2023-12-20T02:18:23;1.40;;;1.30;;
17947;SDS011;9099;47.958;11.366;2023-12-20T02:20:49;1.40;;;1.30;;
17947;SDS011;9099;47.958;11.366;2023-12-20T02:23:18;1.48;;;1.38;;
17947;SDS011;9099;47.958;11.366;2023-12-20T02:25:44;1.20;;;1.15;;
17947;SDS011;9099;47.958;11.366;2023-12-20T02:28:11;1.48;;;1.38;;
17947;SDS011;9099;47.958;11.366;2023-12-20T02:30:38;1.10;;;1.10;;
17947;SDS011;9099;47.958;11.366;2023-12-20T02:33:05;0.93;;;0.93;;
17947;SDS011;9099;47.958;11.366;2023-12-20T02:35:34;1.67;;;0.90;;
17947;SDS011;9099;47.958;11.366;2023-12-20T02:38:01;1.33;;;1.00;;
17947;SDS011;9099;47.958;11.366;2023-12-20T02:40:29;0.98;;;0.98;;
17947;SDS011;9099;47.958;11.366;2023-12-20T02:42:56;1.30;;;1.20;;
17947;SDS011;9099;47.958;11.366;2023-12-20T02:45:23;1.38;;;1.27;;
17947;SDS011;9099;47.958;11.366;2023-12-20T02:47:49;1.38;;;1.27;;
17947;SDS011;9099;47.958;11.366;2023-12-20T02:50:16;1.42;;;1.33;;
17947;SDS011;9099;47.958;11.366;2023-12-20T02:52:44;1.00;;;1.00;;
17947;SDS011;9099;47.958;11.366;2023-12-20T02:55:11;1.52;;;1.42;;
17947;SDS011;9099;47.958;11.366;2023-12-20T02:57:39;1.30;;;1.20;;
17947;SDS011;9099;47.958;11.366;2023-12-20T03:00:07;1.50;;;1.40;;
17947;SDS011;9099;47.958;11.366;2023-12-20T03:02:34;1.30;;;1.20;;
17947;SDS011;9099;47.958;11.366;2023-12-20T03:05:01;1.30;;;1.20;;
17947;SDS011;9099;47.958;11.366;2023-12-20T03:07:28;1.40;;;1.30;;
17947;SDS011;9099;47.958;11.366;2023-12-20T03:09:55;1.15;;;1.15;;
17947;SDS011;9099;47.958;11.366;2023-12-20T03:12:21;1.00;;;1.00;;
17947;SDS011;9099;47.958;11.366;2023-12-20T03:14:50;1.02;;;0.93;;
17947;SDS011;9099;47.958;11.366;2023-12-20T03:17:16;1.10;;;1.00;;
17947;SDS011;9099;47.958;11.366;2023-12-20T03:19:43;1.13;;;1.10;;
17947;SDS011;9099;47.958;11.366;2023-12-20T03:22:10;1.55;;;1.00;;
17947;SDS011;9099;47.958;11.366;2023-12-20T03:24:37;1.00;;;1.00;;
17947;SDS011;9099;47.958;11.366;2023-12-20T03:27:04;0.90;;;0.90;;
17947;SDS011;9099;47.958;11.366;2023-12-20T03:29:31;1.55;;;0.80;;
17947;SDS011;9099;47.958;11.366;2023-12-20T03:31:59;0.80;;;0.80;;
17947;SDS011;9099;47.958;11.366;2023-12-20T03:34:26;0.88;;;0.88;;
17947;SDS011;9099;47.958;11.366;2023-12-20T03:36:54;0.60;;;0.60;;
17947;SDS011;9099;47.958;11.366;2023-12-20T03:39:21;0.75;;;0.70;;
17947;SDS011;9099;47.958;11.366;2023-12-20T03:41:47;0.70;;;0.70;;
17947;SDS011;9099;47.958;11.366;2023-12-20T03:44:14;0.70;;;0.70;;
17947;SDS011;9099;47.958;11.366;2023-12-20T03:46:41;1.25;;;0.63;;
17947;SDS011;9099;47.958;11.366;2023-12-20T03:49:09;0.70;;;0.70;;
17947;SDS011;9099;47.958;11.366;2023-12-20T03:51:36;0.70;;;0.70;;
17947;SDS011;9099;47.958;11.366;2023-12-20T03:54:03;0.50;;;0.50;;
17947;SDS011;9099;47.958;11.366;2023-12-20T03:56:30;0.30;;;0.30;;
17947;SDS011;9099;47.958;11.366;2023-12-20T03:58:56;0.30;;;0.30;;
17947;SDS011;9099;47.958;11.366;2023-12-20T04:01:23;0.45;;;0.45;;
17947;SDS011;9099;47.958;11.366;2023-12-20T04:03:51;0.30;;;0.30;;
17947;SDS011;9099;47.958;11.366;2023-12-20T04:06:19;0.20;;;0.20;;
17947;SDS011;9099;47.958;11.366;2023-12-20T04:08:45;0.68;;;0.40;;
17947;SDS011;9099;47.958;11.366;2023-12-20T04:11:12;0.35;;;0.35;;
17947;SDS011;9099;47.958;11.366;2023-12-20T04:13:39;0.30;;;0.30;;
17947;SDS011;9099;47.958;11.366;2023-12-20T04:16:06;0.77;;;0.52;;
17947;SDS011;9099;47.958;11.366;2023-12-20T04:18:33;0.30;;;0.30;;
17947;SDS011;9099;47.958;11.366;2023-12-20T04:20:59;0.40;;;0.40;;
17947;SDS011;9099;47.958;11.366;2023-12-20T04:23:27;0.40;;;0.40;;
17947;SDS011;9099;47.958;11.366;2023-12-20T04:25:54;0.57;;;0.55;;
17947;SDS011;9099;47.958;11.366;2023-12-20T04:28:21;1.58;;;0.55;;
17947;SDS011;9099;47.958;11.366;2023-12-20T04:30:48;0.47;;;0.47;;
17947;SDS011;9099;47.958;11.366;2023-12-20T04:33:15;0.77;;;0.60;;
17947;SDS011;9099;47.958;11.366;2023-12-20T04:35:42;0.95;;;0.50;;
17947;SDS011;9099;47.958;11.366;2023-12-20T04:38:10;0.60;;;0.60;;
17947;SDS011;9099;47.958;11.366;2023-12-20T04:40:39;0.70;;;0.70;;
17947;SDS011;9099;47.958;11.366;2023-12-20T04:43:06;1.40;;;0.77;;
17947;SDS011;9099;47.958;11.366;2023-12-20T04:45:33;0.40;;;0.40;;
17947;SDS011;9099;47.958;11.366;2023-12-20T04:48:00;0.65;;;0.65;;
17947;SDS011;9099;47.958;11.366;2023-12-20T04:50:28;0.95;;;0.70;;
17947;SDS011;9099;47.958;11.366;2023-12-20T04:52:55;0.70;;;0.70;;
17947;SDS011;9099;47.958;11.366;2023-12-20T04:55:21;0.80;;;0.75;;
17947;SDS011;9099;47.958;11.366;2023-12-20T04:57:50;0.60;;;0.60;;
17947;SDS011;9099;47.958;11.366;2023-12-20T05:00:17;0.80;;;0.80;;
17947;SDS011;9099;47.958;11.366;2023-12-20T05:02:44;0.93;;;0.80;;
17947;SDS011;9099;47.958;11.366;2023-12-20T05:05:11;0.60;;;0.60;;
17947;SDS011;9099;47.958;11.366;2023-12-20T05:07:40;0.65;;;0.65;;
17947;SDS011;9099;47.958;11.366;2023-12-20T05:10:07;0.65;;;0.50;;
17947;SDS011;9099;47.958;11.366;2023-12-20T05:12:34;0.75;;;0.70;;
17947;SDS011;9099;47.958;11.366;2023-12-20T05:15:03;0.57;;;0.50;;
17947;SDS011;9099;47.958;11.366;2023-12-20T05:17:31;0.68;;;0.68;;
17947;SDS011;9099;47.958;11.366;2023-12-20T05:19:58;0.70;;;0.70;;
17947;SDS011;9099;47.958;11.366;2023-12-20T05:22:24;0.50;;;0.50;;
17947;SDS011;9099;47.958;11.366;2023-12-20T05:24:52;0.60;;;0.60;;
17947;SDS011;9099;47.958;11.366;2023-12-20T05:27:19;0.40;;;0.40;;
17947;SDS011;9099;47.958;11.366;2023-12-20T05:29:46;0.75;;;0.75;;
17947;SDS011;9099;47.958;11.366;2023-12-20T05:32:14;0.70;;;0.70;;
17947;SDS011;9099;47.958;11.366;2023-12-20T05:34:41;0.95;;;0.80;;
17947;SDS011;9099;47.958;11.366;2023-12-20T05:37:08;0.60;;;0.60;;
17947;SDS011;9099;47.958;11.366;2023-12-20T05:39:34;1.83;;;0.70;;
17947;SDS011;9099;47.958;11.366;2023-12-20T05:42:01;0.57;;;0.57;;
17947;SDS011;9099;47.958;11.366;2023-12-20T05:44:28;0.50;;;0.50;;
17947;SDS011;9099;47.958;11.366;2023-12-20T05:46:55;0.85;;;0.70;;
17947;SDS011;9099;47.958;11.366;2023-12-20T05:49:23;0.43;;;0.43;;
17947;SDS011;9099;47.958;11.366;2023-12-20T05:51:50;0.70;;;0.70;;
17947;SDS011;9099;47.958;11.366;2023-12-20T05:54:16;0.43;;;0.40;;
17947;SDS011;9099;47.958;11.366;2023-12-20T05:56:43;0.65;;;0.65;;
17947;SDS011;9099;47.958;11.366;2023-12-20T05:59:10;0.50;;;0.50;;
17947;SDS011;9099;47.958;11.366;2023-12-20T06:01:37;0.68;;;0.68;;
17947;SDS011;9099;47.958;11.366;2023-12-20T06:04:04;0.40;;;0.40;;
17947;SDS011;9099;47.958;11.366;2023-12-20T06:06:32;0.85;;;0.85;;
17947;SDS011;9099;47.958;11.366;2023-12-20T06:08:58;0.70;;;0.70;;
17947;SDS011;9099;47.958;11.366;2023-12-20T06:11:25;0.50;;;0.50;;
17947;SDS011;9099;47.958;11.366;2023-12-20T06:13:52;0.50;;;0.50;;
17947;SDS011;9099;47.958;11.366;2023-12-20T06:16:19;1.33;;;1.05;;
17947;SDS011;9099;47.958;11.366;2023-12-20T06:18:46;1.38;;;0.60;;
17947;SDS011;9099;47.958;11.366;2023-12-20T06:21:13;0.50;;;0.50;;
17947;SDS011;9099;47.958;11.366;2023-12-20T06:23:41;1.40;;;0.63;;
17947;SDS011;9099;47.958;11.366;2023-12-20T06:26:08;0.57;;;0.57;;
17947;SDS011;9099;47.958;11.366;2023-12-20T06:28:34;0.50;;;0.50;;
17947;SDS011;9099;47.958;11.366;2023-12-20T06:31:01;0.40;;;0.40;;
17947;SDS011;9099;47.958;11.366;2023-12-20T06:33:29;1.75;;;0.70;;
17947;SDS011;9099;47.958;11.366;2023-12-20T06:35:56;0.30;;;0.30;;
17947;SDS011;9099;47.958;11.366;2023-12-20T06:38:22;1.42;;;0.50;;
17947;SDS011;9099;47.958;11.366;2023-12-20T06:40:51;1.38;;;0.50;;
17947;SDS011;9099;47.958;11.366;2023-12-20T06:43:17;0.30;;;0.20;;
17947;SDS011;9099;47.958;11.366;2023-12-20T06:45:44;0.50;;;0.50;;
17947;SDS011;9099;47.958;11.366;2023-12-20T06:48:11;0.82;;;0.40;;
17947;SDS011;9099;47.958;11.366;2023-12-20T06:50:38;0.90;;;0.50;;
17947;SDS011;9099;47.958;11.366;2023-12-20T06:53:05;1.33;;;0.70;;
17947;SDS011;9099;47.958;11.366;2023-12-20T06:55:33;0.50;;;0.50;;
17947;SDS011;9099;47.958;11.366;2023-12-20T06:58:02;0.85;;;0.80;;
17947;SDS011;9099;47.958;11.366;2023-12-20T07:00:29;0.40;;;0.40;;
17947;SDS011;9099;47.958;11.366;2023-12-20T07:02:56;0.90;;;0.88;;
17947;SDS011;9099;47.958;11.366;2023-12-20T07:05:23;0.40;;;0.40;;
17947;SDS011;9099;47.958;11.366;2023-12-20T07:07:50;0.40;;;0.40;;
17947;SDS011;9099;47.958;11.366;2023-12-20T07:10:17;0.32;;;0.32;;
17947;SDS011;9099;47.958;11.366;2023-12-20T07:12:43;0.40;;;0.40;;
17947;SDS011;9099;47.958;11.366;2023-12-20T07:15:12;0.50;;;0.50;;
17947;SDS011;9099;47.958;11.366;2023-12-20T07:17:39;0.32;;;0.20;;
17947;SDS011;9099;47.958;11.366;2023-12-20T07:20:06;0.40;;;0.40;;
17947;SDS011;9099;47.958;11.366;2023-12-20T07:22:35;1.55;;;0.40;;
17947;SDS011;9099;47.958;11.366;2023-12-20T07:25:02;0.30;;;0.30;;
17947;SDS011;9099;47.958;11.366;2023-12-20T07:27:30;0.20;;;0.20;;
17947;SDS011;9099;47.958;11.366;2023-12-20T07:29:56;0.22;;;0.22;;
17947;SDS011;9099;47.958;11.366;2023-12-20T07:32:25;0.30;;;0.30;;
17947;SDS011;9099;47.958;11.366;2023-12-20T07:34:52;0.30;;;0.30;;
17947;SDS011;9099;47.958;11.366;2023-12-20T07:37:19;0.30;;;0.30;;
17947;SDS011;9099;47.958;11.366;2023-12-20T07:39:46;0.20;;;0.20;;
17947;SDS011;9099;47.958;11.366;2023-12-20T07:42:13;0.28;;;0.28;;
17947;SDS011;9099;47.958;11.366;2023-12-20T07:44:40;0.20;;;0.20;;
17947;SDS011;9099;47.958;11.366;2023-12-20T07:47:07;0.15;;;0.15;;
17947;SDS011;9099;47.958;11.366;2023-12-20T07:49:34;1.20;;;0.40;;
17947;SDS011;9099;47.958;11.366;2023-12-20T07:52:01;0.57;;;0.20;;
17947;SDS011;9099;47.958;11.366;2023-12-20T07:54:28;0.30;;;0.30;;
17947;SDS011;9099;47.958;11.366;2023-12-20T07:56:55;0.30;;;0.30;;
17947;SDS011;9099;47.958;11.366;2023-12-20T07:59:23;0.50;;;0.50;;
17947;SDS011;9099;47.958;11.366;2023-12-20T08:01:49;0.50;;;0.50;;
17947;SDS011;9099;47.958;11.366;2023-12-20T08:04:16;0.28;;;0.28;;
17947;SDS011;9099;47.958;11.366;2023-12-20T08:06:44;0.40;;;0.40;;
17947;SDS011;9099;47.958;11.366;2023-12-20T08:09:11;0.35;;;0.35;;
17947;SDS011;9099;47.958;11.366;2023-12-20T08:11:38;0.40;;;0.40;;
17947;SDS011;9099;47.958;11.366;2023-12-20T08:14:05;0.50;;;0.50;;
17947;SDS011;9099;47.958;11.366;2023-12-20T08:16:31;0.30;;;0.30;;
17947;SDS011;9099;47.958;11.366;2023-12-20T08:18:58;0.52;;;0.30;;
17947;SDS011;9099;47.958;11.366;2023-12-20T08:21:25;0.50;;;0.50;;
17947;SDS011;9099;47.958;11.366;2023-12-20T08:23:53;0.40;;;0.40;;
17947;SDS011;9099;47.958;11.366;2023-12-20T08:26:20;0.50;;;0.50;;
17947;SDS011;9099;47.958;11.366;2023-12-20T08:28:49;0.30;;;0.30;;
17947;SDS011;9099;47.958;11.366;2023-12-20T08:31:16;0.40;;;0.40;;
17947;SDS011;9099;47.958;11.366;2023-12-20T08:33:44;3.97;;;0.70;;
17947;SDS011;9099;47.958;11.366;2023-12-20T08:36:12;0.28;;;0.28;;
17947;SDS011;9099;47.958;11.366;2023-12-20T08:38:39;0.40;;;0.40;;
17947;SDS011;9099;47.958;11.366;2023-12-20T08:41:07;0.40;;;0.40;;
17947;SDS011;9099;47.958;11.366;2023-12-20T08:43:34;0.20;;;0.20;;
17947;SDS011;9099;47.958;11.366;2023-12-20T08:46:01;0.30;;;0.30;;
17947;SDS011;9099;47.958;11.366;2023-12-20T08:48:28;0.40;;;0.40;;
17947;SDS011;9099;47.958;11.366;2023-12-20T08:50:55;0.22;;;0.22;;
17947;SDS011;9099;47.958;11.366;2023-12-20T08:53:22;0.30;;;0.30;;
17947;SDS011;9099;47.958;11.366;2023-12-20T08:55:48;0.30;;;0.30;;
17947;SDS011;9099;47.958;11.366;2023-12-20T08:58:17;0.40;;;0.40;;
17947;SDS011;9099;47.958;11.366;2023-12-20T09:00:44;0.20;;;0.20;;
17947;SDS011;9099;47.958;11.366;2023-12-20T09:03:11;0.38;;;0.30;;
17947;SDS011;9099;47.958;11.366;2023-12-20T09:05:38;0.35;;;0.20;;
17947;SDS011;9099;47.958;11.366;2023-12-20T09:08:05;0.20;;;0.20;;
17947;SDS011;9099;47.958;11.366;2023-12-20T09:10:33;0.20;;;0.20;;
17947;SDS011;9099;47.958;11.366;2023-12-20T09:12:59;0.50;;;0.30;;
17947;SDS011;9099;47.958;11.366;2023-12-20T09:15:28;0.28;;;0.20;;
17947;SDS011;9099;47.958;11.366;2023-12-20T09:17:55;0.20;;;0.20;;
17947;SDS011;9099;47.958;11.366;2023-12-20T09:20:22;0.20;;;0.20;;
17947;SDS011;9099;47.958;11.366;2023-12-20T09:22:49;0.30;;;0.30;;
17947;SDS011;9099;47.958;11.366;2023-12-20T09:25:16;0.20;;;0.20;;
17947;SDS011;9099;47.958;11.366;2023-12-20T09:27:43;0.20;;;0.20;;
17947;SDS011;9099;47.958;11.366;2023-12-20T09:30:10;0.30;;;0.30;;
17947;SDS011;9099;47.958;11.366;2023-12-20T09:32:38;0.20;;;0.20;;
17947;SDS011;9099;47.958;11.366;2023-12-20T09:35:05;0.20;;;0.20;;
17947;SDS011;9099;47.958;11.366;2023-12-20T09:37:33;0.32;;;0.22;;
17947;SDS011;9099;47.958;11.366;2023-12-20T09:40:00;0.90;;;0.20;;
17947;SDS011;9099;47.958;11.366;2023-12-20T09:42:29;0.20;;;0.20;;
17947;SDS011;9099;47.958;11.366;2023-12-20T09:45:04;0.10;;;0.10;;
17947;SDS011;9099;47.958;11.366;2023-12-20T09:50:58;0.43;;;0.17;;
17947;SDS011;9099;47.958;11.366;2023-12-20T09:53:25;0.20;;;0.20;;
17947;SDS011;9099;47.958;11.366;2023-12-20T09:55:55;0.10;;;0.10;;
17947;SDS011;9099;47.958;11.366;2023-12-20T09:58:24;0.65;;;0.25;;
17947;SDS011;9099;47.958;11.366;2023-12-20T10:00:51;0.20;;;0.20;;
17947;SDS011;9099;47.958;11.366;2023-12-20T10:03:21;0.20;;;0.20;;
17947;SDS011;9099;47.958;11.366;2023-12-20T10:05:51;0.30;;;0.30;;
17947;SDS011;9099;47.958;11.366;2023-12-20T10:08:22;0.10;;;0.10;;
17947;SDS011;9099;47.958;11.366;2023-12-20T10:10:50;0.28;;;0.25;;
17947;SDS011;9099;47.958;11.366;2023-12-20T10:13:17;0.20;;;0.20;;
17947;SDS011;9099;47.958;11.366;2023-12-20T10:15:43;0.17;;;0.17;;
17947;SDS011;9099;47.958;11.366;2023-12-20T10:18:11;0.32;;;0.15;;
17947;SDS011;9099;47.958;11.366;2023-12-20T10:20:39;0.55;;;0.40;;
17947;SDS011;9099;47.958;11.366;2023-12-20T10:23:06;0.30;;;0.28;;
17947;SDS011;9099;47.958;11.366;2023-12-20T10:25:35;0.35;;;0.35;;
17947;SDS011;9099;47.958;11.366;2023-12-20T10:28:09;0.65;;;0.15;;
17947;SDS011;9099;47.958;11.366;2023-12-20T10:30:36;0.20;;;0.10;;
17947;SDS011;9099;47.958;11.366;2023-12-20T10:33:04;0.20;;;0.20;;
17947;SDS011;9099;47.958;11.366;2023-12-20T10:35:32;0.10;;;0.10;;
17947;SDS011;9099;47.958;11.366;2023-12-20T10:37:58;0.25;;;0.20;;
17947;SDS011;9099;47.958;11.366;2023-12-20T10:40:30;0.15;;;0.15;;
17947;SDS011;9099;47.958;11.366;2023-12-20T10:42:58;0.20;;;0.20;;
17947;SDS011;9099;47.958;11.366;2023-12-20T10:45:27;0.10;;;0.10;;
17947;SDS011;9099;47.958;11.366;2023-12-20T10:47:54;0.30;;;0.13;;
17947;SDS011;9099;47.958;11.366;2023-12-20T10:50:24;0.73;;;0.10;;
17947;SDS011;9099;47.958;11.366;2023-12-20T10:52:52;0.20;;;0.20;;
17947;SDS011;9099;47.958;11.366;2023-12-20T10:55:21;0.13;;;0.13;;
17947;SDS011;9099;47.958;11.366;2023-12-20T10:57:48;0.10;;;0.10;;
17947;SDS011;9099;47.958;11.366;2023-12-20T11:00:18;0.38;;;0.20;;
17947;SDS011;9099;47.958;11.366;2023-12-20T11:02:47;0.20;;;0.20;;
17947;SDS011;9099;47.958;11.366;2023-12-20T11:05:19;0.13;;;0.10;;
17947;SDS011;9099;47.958;11.366;2023-12-20T11:07:57;1.25;;;0.30;;
17947;SDS011;9099;47.958;11.366;2023-12-20T11:10:29;0.10;;;0.10;;
17947;SDS011;9099;47.958;11.366;2023-12-20T11:12:58;0.10;;;0.10;;
17947;SDS011;9099;47.958;11.366;2023-12-20T11:15:35;0.13;;;0.13;;
17947;SDS011;9099;47.958;11.366;2023-12-20T11:18:03;0.00;;;0.00;;
17947;SDS011;9099;47.958;11.366;2023-12-20T11:20:35;1.10;;;0.20;;
17947;SDS011;9099;47.958;11.366;2023-12-20T11:23:03;0.30;;;0.10;;
17947;SDS011;9099;47.958;11.366;2023-12-20T11:25:33;0.10;;;0.10;;
17947;SDS011;9099;47.958;11.366;2023-12-20T11:28:14;0.08;;;0.08;;
17947;SDS011;9099;47.958;11.366;2023-12-20T11:30:48;0.10;;;0.10;;
17947;SDS011;9099;47.958;11.366;2023-12-20T11:33:17;0.73;;;0.10;;
17947;SDS011;9099;47.958;11.366;2023-12-20T11:35:49;0.30;;;0.30;;
17947;SDS011;9099;47.958;11.366;2023-12-20T11:38:15;0.73;;;0.30;;
17947;SDS011;9099;47.958;11.366;2023-12-20T11:40:43;0.35;;;0.30;;
17947;SDS011;9099;47.958;11.366;2023-12-20T11:43:10;0.80;;;0.15;;
17947;SDS011;9099;47.958;11.366;2023-12-20T11:45:37;0.25;;;0.25;;
17947;SDS011;9099;47.958;11.366;2023-12-20T11:48:16;0.20;;;0.20;;
17947;SDS011;9099;47.958;11.366;2023-12-20T11:50:44;1.45;;;0.30;;
17947;SDS011;9099;47.958;11.366;2023-12-20T11:53:11;0.25;;;0.20;;
17947;SDS011;9099;47.958;11.366;2023-12-20T11:55:38;0.20;;;0.20;;
17947;SDS011;9099;47.958;11.366;2023-12-20T11:58:05;0.20;;;0.20;;
17947;SDS011;9099;47.958;11.366;2023-12-20T12:00:34;0.10;;;0.10;;
17947;SDS011;9099;47.958;11.366;2023-12-20T12:03:01;0.10;;;0.10;;
17947;SDS011;9099;47.958;11.366;2023-12-20T12:05:31;0.15;;;0.15;;
17947;SDS011;9099;47.958;11.366;2023-12-20T12:07:58;0.30;;;0.20;;
17947;SDS011;9099;47.958;11.366;2023-12-20T12:10:25;0.20;;;0.20;;
17947;SDS011;9099;47.958;11.366;2023-12-20T12:12:52;0.30;;;0.30;;
17947;SDS011;9099;47.958;11.366;2023-12-20T12:15:19;0.30;;;0.30;;
17947;SDS011;9099;47.958;11.366;2023-12-20T12:17:52;0.20;;;0.20;;
17947;SDS011;9099;47.958;11.366;2023-12-20T12:20:19;0.40;;;0.40;;
17947;SDS011;9099;47.958;11.366;2023-12-20T12:22:48;0.35;;;0.35;;
17947;SDS011;9099;47.958;11.366;2023-12-20T12:25:24;1.23;;;0.47;;
17947;SDS011;9099;47.958;11.366;2023-12-20T12:27:50;0.55;;;0.45;;
17947;SDS011;9099;47.958;11.366;2023-12-20T12:30:17;0.45;;;0.45;;
17947;SDS011;9099;47.958;11.366;2023-12-20T12:32:44;0.95;;;0.40;;
17947;SDS011;9099;47.958;11.366;2023-12-20T12:35:11;0.50;;;0.50;;
17947;SDS011;9099;47.958;11.366;2023-12-20T12:37:38;0.60;;;0.60;;
17947;SDS011;9099;47.958;11.366;2023-12-20T12:40:09;0.60;;;0.60;;
17947;SDS011;9099;47.958;11.366;2023-12-20T12:42:36;0.60;;;0.60;;
17947;SDS011;9099;47.958;11.366;2023-12-20T12:45:04;0.47;;;0.47;;
17947;SDS011;9099;47.958;11.366;2023-12-20T12:47:31;0.68;;;0.68;;
17947;SDS011;9099;47.958;11.366;2023-12-20T12:49:59;0.63;;;0.60;;
17947;SDS011;9099;47.958;11.366;2023-12-20T12:52:26;0.50;;;0.50;;
17947;SDS011;9099;47.958;11.366;2023-12-20T12:54:52;0.73;;;0.73;;
17947;SDS011;9099;47.958;11.366;2023-12-20T12:57:21;1.05;;;1.00;;
17947;SDS011;9099;47.958;11.366;2023-12-20T12:59:48;0.75;;;0.75;;
17947;SDS011;9099;47.958;11.366;2023-12-20T13:02:16;1.08;;;0.85;;
17947;SDS011;9099;47.958;11.366;2023-12-20T13:04:43;1.33;;;1.23;;
17947;SDS011;9099;47.958;11.366;2023-12-20T13:07:10;1.02;;;0.80;;
17947;SDS011;9099;47.958;11.366;2023-12-20T13:09:38;0.88;;;0.88;;
17947;SDS011;9099;47.958;11.366;2023-12-20T13:12:06;0.95;;;0.95;;
17947;SDS011;9099;47.958;11.366;2023-12-20T13:14:35;0.60;;;0.60;;
17947;SDS011;9099;47.958;11.366;2023-12-20T13:17:03;1.35;;;0.88;;
17947;SDS011;9099;47.958;11.366;2023-12-20T13:19:31;1.67;;;0.85;;
17947;SDS011;9099;47.958;11.366;2023-12-20T13:21:58;1.02;;;1.02;;
17947;SDS011;9099;47.958;11.366;2023-12-20T13:24:25;1.77;;;0.95;;
17947;SDS011;9099;47.958;11.366;2023-12-20T13:26:51;0.82;;;0.82;;
17947;SDS011;9099;47.958;11.366;2023-12-20T13:29:18;0.82;;;0.82;;
17947;SDS011;9099;47.958;11.366;2023-12-20T13:31:46;0.70;;;0.70;;
17947;SDS011;9099;47.958;11.366;2023-12-20T13:34:13;0.70;;;0.70;;
17947;SDS011;9099;47.958;11.366;2023-12-20T13:36:42;0.95;;;0.95;;
17947;SDS011;9099;47.958;11.366;2023-12-20T13:39:12;0.70;;;0.70;;
17947;SDS011;9099;47.958;11.366;2023-12-20T13:41:39;0.80;;;0.80;;
17947;SDS011;9099;47.958;11.366;2023-12-20T13:44:07;10.65;;;4.90;;
17947;SDS011;9099;47.958;11.366;2023-12-20T13:46:34;1.20;;;1.10;;
17947;SDS011;9099;47.958;11.366;2023-12-20T13:49:03;0.95;;;0.95;;
17947;SDS011;9099;47.958;11.366;2023-12-20T13:51:30;0.77;;;0.77;;
17947;SDS011;9099;47.958;11.366;2023-12-20T13:53:57;0.98;;;0.98;;
17947;SDS011;9099;47.958;11.366;2023-12-20T13:56:25;0.90;;;0.90;;
17947;SDS011;9099;47.958;11.366;2023-12-20T13:58:51;0.70;;;0.70;;
17947;SDS011;9099;47.958;11.366;2023-12-20T14:01:18;0.82;;;0.82;;
17947;SDS011;9099;47.958;11.366;2023-12-20T14:03:45;1.42;;;1.33;;
17947;SDS011;9099;47.958;11.366;2023-12-20T14:06:13;1.08;;;1.02;;
17947;SDS011;9099;47.958;11.366;2023-12-20T14:08:41;0.47;;;0.47;;
17947;SDS011;9099;47.958;11.366;2023-12-20T14:11:08;0.80;;;0.80;;
17947;SDS011;9099;47.958;11.366;2023-12-20T14:13:35;0.68;;;0.68;;
17947;SDS011;9099;47.958;11.366;2023-12-20T14:16:02;0.60;;;0.60;;
17947;SDS011;9099;47.958;11.366;2023-12-20T14:18:29;0.60;;;0.60;;
17947;SDS011;9099;47.958;11.366;2023-12-20T14:20:56;1.30;;;0.50;;
17947;SDS011;9099;47.958;11.366;2023-12-20T14:23:25;0.50;;;0.50;;
17947;SDS011;9099;47.958;11.366;2023-12-20T14:25:52;0.60;;;0.60;;
17947;SDS011;9099;47.958;11.366;2023-12-20T14:28:20;0.88;;;0.88;;
17947;SDS011;9099;47.958;11.366;2023-12-20T14:30:47;1.00;;;1.00;;
17947;SDS011;9099;47.958;11.366;2023-12-20T14:33:15;1.58;;;1.15;;
17947;SDS011;9099;47.958;11.366;2023-12-20T14:35:42;1.20;;;1.10;;
17947;SDS011;9099;47.958;11.366;2023-12-20T14:38:09;1.23;;;1.15;;
17947;SDS011;9099;47.958;11.366;2023-12-20T14:40:39;6.35;;;2.15;;
17947;SDS011;9099;47.958;11.366;2023-12-20T14:43:06;0.80;;;0.73;;
17947;SDS011;9099;47.958;11.366;2023-12-20T14:45:33;0.93;;;0.93;;
17947;SDS011;9099;47.958;11.366;2023-12-20T14:48:00;1.17;;;1.00;;
17947;SDS011;9099;47.958;11.366;2023-12-20T14:50:27;0.70;;;0.70;;
17947;SDS011;9099;47.958;11.366;2023-12-20T14:52:54;0.80;;;0.80;;